sensor_id;sensor_type;location;lat;lon;timestamp;P1;durP1;ratioP1;P2;durP2;ratioP2
9900;SDS011;4989;48.772;9.154;2023-05-09T00:04:55;177.60;;;120.83;;
9900;SDS011;4989;48.772;9.154;2023-05-09T00:09:57;185.43;;;149.77;;
9900;SDS011;4989;48.772;9.154;2023-05-09T00:15:00;169.33;;;153.60;;
9900;SDS011;4989;48.772;9.154;2023-05-09T00:20:02;183.77;;;164.47;;
9900;SDS011;4989;48.772;9.154;2023-05-09T00:25:10;98.47;;;59.37;;
9900;SDS011;4989;48.772;9.154;2023-05-09T00:30:13;118.57;;;54.47;;
9900;SDS011;4989;48.772;9.154;2023-05-09T00:35:15;103.17;;;53.17;;
9900;SDS011;4989;48.772;9.154;2023-05-09T00:40:18;108.93;;;52.87;;
9900;SDS011;4989;48.772;9.154;2023-05-09T00:45:20;106.77;;;62.97;;
9900;SDS011;4989;48.772;9.154;2023-05-09T00:50:23;141.17;;;127.53;;
9900;SDS011;4989;48.772;9.154;2023-05-09T00:55:25;167.40;;;149.87;;
9900;SDS011;4989;48.772;9.154;2023-05-09T01:00:28;169.07;;;151.07;;
9900;SDS011;4989;48.772;9.154;2023-05-09T01:05:49;190.67;;;171.37;;
9900;SDS011;4989;48.772;9.154;2023-05-09T01:11:22;121.43;;;55.30;;
9900;SDS011;4989;48.772;9.154;2023-05-09T01:17:04;113.20;;;59.83;;
9900;SDS011;4989;48.772;9.154;2023-05-09T01:22:16;114.00;;;54.00;;
9900;SDS011;4989;48.772;9.154;2023-05-09T01:32:55;152.97;;;136.57;;
9900;SDS011;4989;48.772;9.154;2023-05-09T01:38:06;178.03;;;162.10;;
9900;SDS011;4989;48.772;9.154;2023-05-09T01:43:13;97.20;;;51.20;;
9900;SDS011;4989;48.772;9.154;2023-05-09T01:48:20;113.13;;;56.53;;
9900;SDS011;4989;48.772;9.154;2023-05-09T01:53:26;164.10;;;147.00;;
9900;SDS011;4989;48.772;9.154;2023-05-09T01:58:32;167.53;;;151.53;;
9900;SDS011;4989;48.772;9.154;2023-05-09T02:03:36;140.67;;;127.67;;
9900;SDS011;4989;48.772;9.154;2023-05-09T02:08:40;103.17;;;52.30;;
9900;SDS011;4989;48.772;9.154;2023-05-09T02:13:44;117.77;;;55.63;;
9900;SDS011;4989;48.772;9.154;2023-05-09T02:18:46;134.47;;;56.50;;
9900;SDS011;4989;48.772;9.154;2023-05-09T02:23:49;122.70;;;61.40;;
9900;SDS011;4989;48.772;9.154;2023-05-09T02:28:51;132.93;;;83.00;;
9900;SDS011;4989;48.772;9.154;2023-05-09T02:33:56;172.87;;;150.17;;
9900;SDS011;4989;48.772;9.154;2023-05-09T02:38:59;175.40;;;147.13;;
9900;SDS011;4989;48.772;9.154;2023-05-09T02:44:03;186.90;;;145.93;;
9900;SDS011;4989;48.772;9.154;2023-05-09T02:49:05;206.20;;;150.67;;
9900;SDS011;4989;48.772;9.154;2023-05-09T02:54:07;166.27;;;134.73;;
9900;SDS011;4989;48.772;9.154;2023-05-09T02:59:10;122.33;;;62.40;;
9900;SDS011;4989;48.772;9.154;2023-05-09T03:04:12;185.93;;;55.20;;
9900;SDS011;4989;48.772;9.154;2023-05-09T03:09:14;153.80;;;51.70;;
9900;SDS011;4989;48.772;9.154;2023-05-09T03:14:18;127.60;;;53.77;;
9900;SDS011;4989;48.772;9.154;2023-05-09T03:19:20;118.97;;;62.03;;
9900;SDS011;4989;48.772;9.154;2023-05-09T03:24:24;156.70;;;109.50;;
9900;SDS011;4989;48.772;9.154;2023-05-09T03:29:28;171.80;;;152.77;;
9900;SDS011;4989;48.772;9.154;2023-05-09T03:34:31;178.63;;;145.27;;
9900;SDS011;4989;48.772;9.154;2023-05-09T03:39:34;171.63;;;151.10;;
9900;SDS011;4989;48.772;9.154;2023-05-09T03:44:36;183.37;;;152.10;;
9900;SDS011;4989;48.772;9.154;2023-05-09T03:49:38;161.70;;;104.67;;
9900;SDS011;4989;48.772;9.154;2023-05-09T03:54:44;179.87;;;59.57;;
9900;SDS011;4989;48.772;9.154;2023-05-09T03:59:47;128.50;;;54.97;;
9900;SDS011;4989;48.772;9.154;2023-05-09T04:04:49;167.03;;;58.33;;
9900;SDS011;4989;48.772;9.154;2023-05-09T04:09:55;344.67;;;176.40;;
9900;SDS011;4989;48.772;9.154;2023-05-09T04:14:58;276.30;;;168.13;;
9900;SDS011;4989;48.772;9.154;2023-05-09T04:20:01;362.13;;;229.23;;
9900;SDS011;4989;48.772;9.154;2023-05-09T04:25:03;373.43;;;214.30;;
9900;SDS011;4989;48.772;9.154;2023-05-09T04:30:07;294.70;;;173.30;;
9900;SDS011;4989;48.772;9.154;2023-05-09T04:35:12;266.23;;;93.47;;
9900;SDS011;4989;48.772;9.154;2023-05-09T04:40:19;269.53;;;91.97;;
9900;SDS011;4989;48.772;9.154;2023-05-09T04:45:29;327.93;;;200.07;;
9900;SDS011;4989;48.772;9.154;2023-05-09T04:50:33;301.00;;;185.57;;
9900;SDS011;4989;48.772;9.154;2023-05-09T04:55:36;299.57;;;191.20;;
9900;SDS011;4989;48.772;9.154;2023-05-09T05:00:39;298.67;;;137.60;;
9900;SDS011;4989;48.772;9.154;2023-05-09T05:05:42;275.93;;;95.50;;
9900;SDS011;4989;48.772;9.154;2023-05-09T05:10:45;257.43;;;94.77;;
9900;SDS011;4989;48.772;9.154;2023-05-09T05:15:50;243.53;;;92.10;;
9900;SDS011;4989;48.772;9.154;2023-05-09T05:20:54;214.23;;;143.73;;
9900;SDS011;4989;48.772;9.154;2023-05-09T05:25:58;252.17;;;171.77;;
9900;SDS011;4989;48.772;9.154;2023-05-09T05:31:02;281.87;;;171.17;;
9900;SDS011;4989;48.772;9.154;2023-05-09T05:36:06;277.53;;;176.57;;
9900;SDS011;4989;48.772;9.154;2023-05-09T05:41:08;276.13;;;143.53;;
9900;SDS011;4989;48.772;9.154;2023-05-09T05:46:13;247.87;;;85.13;;
9900;SDS011;4989;48.772;9.154;2023-05-09T05:51:16;299.40;;;113.63;;
9900;SDS011;4989;48.772;9.154;2023-05-09T05:56:19;297.20;;;112.43;;
9900;SDS011;4989;48.772;9.154;2023-05-09T06:01:23;317.63;;;182.60;;
9900;SDS011;4989;48.772;9.154;2023-05-09T06:06:26;321.70;;;212.63;;
9900;SDS011;4989;48.772;9.154;2023-05-09T06:11:29;308.07;;;221.40;;
9900;SDS011;4989;48.772;9.154;2023-05-09T06:16:32;305.00;;;232.13;;
9900;SDS011;4989;48.772;9.154;2023-05-09T06:21:34;392.03;;;352.80;;
9900;SDS011;4989;48.772;9.154;2023-05-09T06:26:37;469.73;;;426.63;;
9900;SDS011;4989;48.772;9.154;2023-05-09T06:31:39;470.90;;;427.50;;
9900;SDS011;4989;48.772;9.154;2023-05-09T06:36:41;456.57;;;413.53;;
9900;SDS011;4989;48.772;9.154;2023-05-09T06:41:43;497.17;;;452.50;;
9900;SDS011;4989;48.772;9.154;2023-05-09T06:46:56;569.43;;;522.60;;
9900;SDS011;4989;48.772;9.154;2023-05-09T06:51:58;554.10;;;507.50;;
9900;SDS011;4989;48.772;9.154;2023-05-09T06:57:00;555.97;;;508.60;;
9900;SDS011;4989;48.772;9.154;2023-05-09T07:02:02;520.50;;;476.30;;
9900;SDS011;4989;48.772;9.154;2023-05-09T07:07:05;529.57;;;485.53;;
9900;SDS011;4989;48.772;9.154;2023-05-09T07:12:08;515.57;;;472.37;;
9900;SDS011;4989;48.772;9.154;2023-05-09T07:17:10;480.13;;;439.07;;
9900;SDS011;4989;48.772;9.154;2023-05-09T07:22:23;503.73;;;461.43;;
9900;SDS011;4989;48.772;9.154;2023-05-09T07:27:25;514.67;;;472.60;;
9900;SDS011;4989;48.772;9.154;2023-05-09T07:32:27;505.67;;;464.00;;
9900;SDS011;4989;48.772;9.154;2023-05-09T07:37:30;513.10;;;471.63;;
9900;SDS011;4989;48.772;9.154;2023-05-09T07:42:32;509.43;;;467.47;;
9900;SDS011;4989;48.772;9.154;2023-05-09T07:47:35;488.90;;;448.07;;
9900;SDS011;4989;48.772;9.154;2023-05-09T07:52:37;500.57;;;459.60;;
9900;SDS011;4989;48.772;9.154;2023-05-09T07:57:39;460.70;;;421.10;;
9900;SDS011;4989;48.772;9.154;2023-05-09T08:02:41;405.60;;;368.90;;
9900;SDS011;4989;48.772;9.154;2023-05-09T08:07:43;417.37;;;380.10;;
9900;SDS011;4989;48.772;9.154;2023-05-09T08:12:46;415.13;;;377.93;;
9900;SDS011;4989;48.772;9.154;2023-05-09T08:17:49;431.43;;;394.37;;
9900;SDS011;4989;48.772;9.154;2023-05-09T08:22:52;442.23;;;404.70;;
9900;SDS011;4989;48.772;9.154;2023-05-09T08:27:54;525.30;;;484.40;;
9900;SDS011;4989;48.772;9.154;2023-05-09T08:32:56;543.03;;;501.27;;
9900;SDS011;4989;48.772;9.154;2023-05-09T08:37:58;583.30;;;539.80;;
9900;SDS011;4989;48.772;9.154;2023-05-09T08:43:01;591.80;;;548.43;;
9900;SDS011;4989;48.772;9.154;2023-05-09T08:48:07;611.57;;;567.77;;
9900;SDS011;4989;48.772;9.154;2023-05-09T08:53:10;550.30;;;509.33;;
9900;SDS011;4989;48.772;9.154;2023-05-09T08:58:14;519.57;;;479.37;;
9900;SDS011;4989;48.772;9.154;2023-05-09T09:03:19;503.90;;;464.40;;
9900;SDS011;4989;48.772;9.154;2023-05-09T09:08:22;521.60;;;481.03;;
9900;SDS011;4989;48.772;9.154;2023-05-09T09:13:27;589.90;;;546.33;;
9900;SDS011;4989;48.772;9.154;2023-05-09T09:18:31;606.87;;;562.87;;
9900;SDS011;4989;48.772;9.154;2023-05-09T09:23:36;624.20;;;579.53;;
9900;SDS011;4989;48.772;9.154;2023-05-09T09:28:41;578.63;;;537.03;;
9900;SDS011;4989;48.772;9.154;2023-05-09T09:33:44;562.77;;;521.77;;
9900;SDS011;4989;48.772;9.154;2023-05-09T09:38:46;557.50;;;516.63;;
9900;SDS011;4989;48.772;9.154;2023-05-09T09:43:48;529.27;;;489.27;;
9900;SDS011;4989;48.772;9.154;2023-05-09T09:48:50;536.83;;;496.40;;
9900;SDS011;4989;48.772;9.154;2023-05-09T09:53:57;574.00;;;531.23;;
9900;SDS011;4989;48.772;9.154;2023-05-09T09:59:12;577.03;;;533.63;;
9900;SDS011;4989;48.772;9.154;2023-05-09T10:04:19;521.33;;;481.50;;
9900;SDS011;4989;48.772;9.154;2023-05-09T10:09:23;538.20;;;497.47;;
9900;SDS011;4989;48.772;9.154;2023-05-09T10:14:27;597.67;;;554.13;;
9900;SDS011;4989;48.772;9.154;2023-05-09T10:19:35;635.37;;;590.33;;
9900;SDS011;4989;48.772;9.154;2023-05-09T10:24:50;592.97;;;550.80;;
9900;SDS011;4989;48.772;9.154;2023-05-09T10:35:13;604.27;;;561.90;;
9900;SDS011;4989;48.772;9.154;2023-05-09T10:40:18;591.93;;;550.03;;
9900;SDS011;4989;48.772;9.154;2023-05-09T10:45:22;585.30;;;543.23;;
9900;SDS011;4989;48.772;9.154;2023-05-09T10:50:24;622.50;;;578.70;;
9900;SDS011;4989;48.772;9.154;2023-05-09T10:55:38;665.00;;;619.20;;
9900;SDS011;4989;48.772;9.154;2023-05-09T11:00:56;678.17;;;632.33;;
9900;SDS011;4989;48.772;9.154;2023-05-09T11:06:01;720.97;;;673.50;;
9900;SDS011;4989;48.772;9.154;2023-05-09T11:11:05;739.50;;;691.93;;
9900;SDS011;4989;48.772;9.154;2023-05-09T11:16:08;780.40;;;731.30;;
9900;SDS011;4989;48.772;9.154;2023-05-09T11:21:12;718.67;;;672.97;;
9900;SDS011;4989;48.772;9.154;2023-05-09T11:26:15;692.60;;;647.93;;
9900;SDS011;4989;48.772;9.154;2023-05-09T11:31:23;714.97;;;669.83;;
9900;SDS011;4989;48.772;9.154;2023-05-09T11:41:37;772.63;;;724.33;;
9900;SDS011;4989;48.772;9.154;2023-05-09T11:46:49;721.57;;;676.57;;
9900;SDS011;4989;48.772;9.154;2023-05-09T11:51:52;714.03;;;669.43;;
9900;SDS011;4989;48.772;9.154;2023-05-09T11:56:54;725.83;;;680.17;;
9900;SDS011;4989;48.772;9.154;2023-05-09T12:02:03;765.63;;;717.60;;
9900;SDS011;4989;48.772;9.154;2023-05-09T12:07:07;776.80;;;728.33;;
9900;SDS011;4989;48.772;9.154;2023-05-09T12:12:13;747.37;;;701.43;;
9900;SDS011;4989;48.772;9.154;2023-05-09T12:17:15;766.80;;;720.80;;
9900;SDS011;4989;48.772;9.154;2023-05-09T12:22:17;763.47;;;717.60;;
9900;SDS011;4989;48.772;9.154;2023-05-09T12:27:22;745.17;;;699.93;;
9900;SDS011;4989;48.772;9.154;2023-05-09T12:32:27;781.00;;;733.17;;
9900;SDS011;4989;48.772;9.154;2023-05-09T12:37:33;801.57;;;752.30;;
9900;SDS011;4989;48.772;9.154;2023-05-09T12:42:35;758.80;;;711.20;;
9900;SDS011;4989;48.772;9.154;2023-05-09T12:47:37;750.37;;;702.73;;
9900;SDS011;4989;48.772;9.154;2023-05-09T12:52:42;725.50;;;680.17;;
9900;SDS011;4989;48.772;9.154;2023-05-09T12:58:03;735.87;;;688.07;;
9900;SDS011;4989;48.772;9.154;2023-05-09T13:03:18;724.70;;;677.73;;
9900;SDS011;4989;48.772;9.154;2023-05-09T13:08:31;728.23;;;681.40;;
9900;SDS011;4989;48.772;9.154;2023-05-09T13:13:33;720.20;;;673.43;;
9900;SDS011;4989;48.772;9.154;2023-05-09T13:18:36;721.03;;;674.43;;
9900;SDS011;4989;48.772;9.154;2023-05-09T13:23:38;699.37;;;653.30;;
9900;SDS011;4989;48.772;9.154;2023-05-09T13:28:42;680.87;;;636.67;;
9900;SDS011;4989;48.772;9.154;2023-05-09T13:33:44;653.03;;;610.00;;
9900;SDS011;4989;48.772;9.154;2023-05-09T13:38:47;643.07;;;600.50;;
9900;SDS011;4989;48.772;9.154;2023-05-09T13:43:49;652.93;;;609.73;;
9900;SDS011;4989;48.772;9.154;2023-05-09T13:48:51;651.80;;;609.00;;
9900;SDS011;4989;48.772;9.154;2023-05-09T13:53:54;647.20;;;603.93;;
9900;SDS011;4989;48.772;9.154;2023-05-09T13:58:57;685.67;;;640.10;;
9900;SDS011;4989;48.772;9.154;2023-05-09T14:03:59;662.83;;;617.97;;
9900;SDS011;4989;48.772;9.154;2023-05-09T14:09:02;666.70;;;621.67;;
9900;SDS011;4989;48.772;9.154;2023-05-09T14:14:04;680.47;;;634.80;;
9900;SDS011;4989;48.772;9.154;2023-05-09T14:19:06;662.83;;;617.97;;
9900;SDS011;4989;48.772;9.154;2023-05-09T14:24:09;666.43;;;621.40;;
9900;SDS011;4989;48.772;9.154;2023-05-09T14:29:16;588.67;;;547.47;;
9900;SDS011;4989;48.772;9.154;2023-05-09T14:34:18;599.10;;;557.37;;
9900;SDS011;4989;48.772;9.154;2023-05-09T14:39:20;580.83;;;540.00;;
9900;SDS011;4989;48.772;9.154;2023-05-09T14:44:22;590.27;;;548.87;;
9900;SDS011;4989;48.772;9.154;2023-05-09T14:49:25;609.80;;;566.80;;
9900;SDS011;4989;48.772;9.154;2023-05-09T14:54:28;621.00;;;577.33;;
9900;SDS011;4989;48.772;9.154;2023-05-09T14:59:30;615.13;;;571.43;;
9900;SDS011;4989;48.772;9.154;2023-05-09T15:04:33;602.73;;;559.60;;
9900;SDS011;4989;48.772;9.154;2023-05-09T15:09:36;615.63;;;571.97;;
9900;SDS011;4989;48.772;9.154;2023-05-09T15:14:38;632.00;;;587.73;;
9900;SDS011;4989;48.772;9.154;2023-05-09T15:19:41;640.50;;;596.57;;
9900;SDS011;4989;48.772;9.154;2023-05-09T15:24:43;607.03;;;564.97;;
9900;SDS011;4989;48.772;9.154;2023-05-09T15:29:45;588.43;;;547.57;;
9900;SDS011;4989;48.772;9.154;2023-05-09T15:34:47;594.97;;;553.73;;
9900;SDS011;4989;48.772;9.154;2023-05-09T15:39:49;618.73;;;576.77;;
9900;SDS011;4989;48.772;9.154;2023-05-09T15:44:53;615.27;;;573.47;;
9900;SDS011;4989;48.772;9.154;2023-05-09T15:49:55;666.60;;;609.97;;
9900;SDS011;4989;48.772;9.154;2023-05-09T15:54:57;664.57;;;619.63;;
9900;SDS011;4989;48.772;9.154;2023-05-09T16:00:00;732.33;;;641.40;;
9900;SDS011;4989;48.772;9.154;2023-05-09T16:05:12;1454.93;;;656.83;;
9900;SDS011;4989;48.772;9.154;2023-05-09T16:10:15;612.17;;;570.23;;
9900;SDS011;4989;48.772;9.154;2023-05-09T16:15:17;1343.63;;;657.27;;
9900;SDS011;4989;48.772;9.154;2023-05-09T16:20:19;601.33;;;559.23;;
9900;SDS011;4989;48.772;9.154;2023-05-09T16:25:22;613.43;;;571.43;;
9900;SDS011;4989;48.772;9.154;2023-05-09T16:30:25;994.50;;;618.57;;
9900;SDS011;4989;48.772;9.154;2023-05-09T16:35:27;671.90;;;612.77;;
9900;SDS011;4989;48.772;9.154;2023-05-09T16:40:29;665.70;;;619.40;;
9900;SDS011;4989;48.772;9.154;2023-05-09T16:45:32;873.70;;;648.13;;
9900;SDS011;4989;48.772;9.154;2023-05-09T16:50:34;654.83;;;610.13;;
9900;SDS011;4989;48.772;9.154;2023-05-09T16:55:37;750.00;;;637.13;;
9900;SDS011;4989;48.772;9.154;2023-05-09T17:00:40;723.93;;;645.27;;
9900;SDS011;4989;48.772;9.154;2023-05-09T17:05:42;661.37;;;590.53;;
9900;SDS011;4989;48.772;9.154;2023-05-09T17:10:45;642.23;;;569.13;;
9900;SDS011;4989;48.772;9.154;2023-05-09T17:15:47;617.90;;;574.50;;
9900;SDS011;4989;48.772;9.154;2023-05-09T17:20:49;577.73;;;536.80;;
9900;SDS011;4989;48.772;9.154;2023-05-09T17:25:52;581.43;;;540.33;;
9900;SDS011;4989;48.772;9.154;2023-05-09T17:30:54;565.20;;;524.17;;
9900;SDS011;4989;48.772;9.154;2023-05-09T17:35:59;596.43;;;548.60;;
9900;SDS011;4989;48.772;9.154;2023-05-09T17:41:01;560.40;;;517.70;;
9900;SDS011;4989;48.772;9.154;2023-05-09T17:46:04;536.23;;;494.73;;
9900;SDS011;4989;48.772;9.154;2023-05-09T17:51:06;530.10;;;488.50;;
9900;SDS011;4989;48.772;9.154;2023-05-09T17:56:09;515.97;;;474.87;;
9900;SDS011;4989;48.772;9.154;2023-05-09T18:01:11;475.67;;;436.10;;
9900;SDS011;4989;48.772;9.154;2023-05-09T18:06:13;415.47;;;376.63;;
9900;SDS011;4989;48.772;9.154;2023-05-09T18:11:16;397.07;;;360.83;;
9900;SDS011;4989;48.772;9.154;2023-05-09T18:16:18;381.17;;;344.47;;
9900;SDS011;4989;48.772;9.154;2023-05-09T18:21:20;376.40;;;340.93;;
9900;SDS011;4989;48.772;9.154;2023-05-09T18:26:23;380.03;;;344.37;;
9900;SDS011;4989;48.772;9.154;2023-05-09T18:31:26;420.03;;;382.40;;
9900;SDS011;4989;48.772;9.154;2023-05-09T18:36:28;459.87;;;419.57;;
9900;SDS011;4989;48.772;9.154;2023-05-09T18:41:31;462.67;;;423.13;;
9900;SDS011;4989;48.772;9.154;2023-05-09T18:46:34;469.73;;;429.80;;
9900;SDS011;4989;48.772;9.154;2023-05-09T18:51:38;466.73;;;427.17;;
9900;SDS011;4989;48.772;9.154;2023-05-09T18:56:40;459.10;;;420.07;;
9900;SDS011;4989;48.772;9.154;2023-05-09T19:01:43;410.33;;;373.67;;
9900;SDS011;4989;48.772;9.154;2023-05-09T19:06:46;379.60;;;344.03;;
9900;SDS011;4989;48.772;9.154;2023-05-09T19:11:48;379.97;;;344.50;;
9900;SDS011;4989;48.772;9.154;2023-05-09T19:16:50;369.67;;;334.27;;
9900;SDS011;4989;48.772;9.154;2023-05-09T19:21:53;353.53;;;318.53;;
9900;SDS011;4989;48.772;9.154;2023-05-09T19:26:55;409.57;;;372.27;;
9900;SDS011;4989;48.772;9.154;2023-05-09T19:31:57;436.00;;;397.10;;
9900;SDS011;4989;48.772;9.154;2023-05-09T19:37:01;448.97;;;410.00;;
9900;SDS011;4989;48.772;9.154;2023-05-09T19:42:03;417.13;;;379.10;;
9900;SDS011;4989;48.772;9.154;2023-05-09T19:47:06;411.43;;;373.67;;
9900;SDS011;4989;48.772;9.154;2023-05-09T19:52:09;400.07;;;362.47;;
9900;SDS011;4989;48.772;9.154;2023-05-09T19:57:12;371.67;;;335.73;;
9900;SDS011;4989;48.772;9.154;2023-05-09T20:02:14;314.20;;;280.80;;
9900;SDS011;4989;48.772;9.154;2023-05-09T20:07:17;308.13;;;274.97;;
9900;SDS011;4989;48.772;9.154;2023-05-09T20:12:19;299.97;;;267.13;;
9900;SDS011;4989;48.772;9.154;2023-05-09T20:17:22;294.00;;;251.23;;
9900;SDS011;4989;48.772;9.154;2023-05-09T20:22:25;306.90;;;270.33;;
9900;SDS011;4989;48.772;9.154;2023-05-09T20:27:27;346.07;;;310.43;;
9900;SDS011;4989;48.772;9.154;2023-05-09T20:32:29;352.63;;;317.07;;
9900;SDS011;4989;48.772;9.154;2023-05-09T20:37:32;345.17;;;309.77;;
9900;SDS011;4989;48.772;9.154;2023-05-09T20:42:34;350.77;;;315.17;;
9900;SDS011;4989;48.772;9.154;2023-05-09T20:47:37;353.77;;;318.27;;
9900;SDS011;4989;48.772;9.154;2023-05-09T20:52:40;356.33;;;320.73;;
9900;SDS011;4989;48.772;9.154;2023-05-09T20:57:42;298.23;;;260.33;;
9900;SDS011;4989;48.772;9.154;2023-05-09T21:02:44;285.70;;;238.27;;
9900;SDS011;4989;48.772;9.154;2023-05-09T21:07:47;286.00;;;235.17;;
9900;SDS011;4989;48.772;9.154;2023-05-09T21:12:49;286.10;;;234.30;;
9900;SDS011;4989;48.772;9.154;2023-05-09T21:17:51;283.73;;;232.43;;
9900;SDS011;4989;48.772;9.154;2023-05-09T21:22:54;287.97;;;241.10;;
9900;SDS011;4989;48.772;9.154;2023-05-09T21:27:56;320.67;;;286.67;;
9900;SDS011;4989;48.772;9.154;2023-05-09T21:32:58;336.43;;;301.63;;
9900;SDS011;4989;48.772;9.154;2023-05-09T21:38:01;349.83;;;314.50;;
9900;SDS011;4989;48.772;9.154;2023-05-09T21:43:04;347.33;;;312.17;;
9900;SDS011;4989;48.772;9.154;2023-05-09T21:48:06;344.57;;;309.37;;
9900;SDS011;4989;48.772;9.154;2023-05-09T21:53:08;329.57;;;294.97;;
9900;SDS011;4989;48.772;9.154;2023-05-09T21:58:11;325.50;;;291.27;;
9900;SDS011;4989;48.772;9.154;2023-05-09T22:03:13;289.13;;;242.13;;
9900;SDS011;4989;48.772;9.154;2023-05-09T22:08:15;282.13;;;229.93;;
9900;SDS011;4989;48.772;9.154;2023-05-09T22:13:18;279.30;;;216.77;;
9900;SDS011;4989;48.772;9.154;2023-05-09T22:18:20;278.53;;;214.57;;
9900;SDS011;4989;48.772;9.154;2023-05-09T22:23:22;277.80;;;210.13;;
9900;SDS011;4989;48.772;9.154;2023-05-09T22:28:25;283.67;;;221.97;;
9900;SDS011;4989;48.772;9.154;2023-05-09T22:33:27;298.03;;;260.00;;
9900;SDS011;4989;48.772;9.154;2023-05-09T22:38:29;312.67;;;278.40;;
9900;SDS011;4989;48.772;9.154;2023-05-09T22:43:32;321.50;;;287.23;;
9900;SDS011;4989;48.772;9.154;2023-05-09T22:48:40;325.03;;;290.70;;
9900;SDS011;4989;48.772;9.154;2023-05-09T22:53:42;297.57;;;254.30;;
9900;SDS011;4989;48.772;9.154;2023-05-09T22:58:44;286.50;;;223.23;;
9900;SDS011;4989;48.772;9.154;2023-05-09T23:03:46;281.57;;;226.10;;
9900;SDS011;4989;48.772;9.154;2023-05-09T23:08:49;284.67;;;236.17;;
9900;SDS011;4989;48.772;9.154;2023-05-09T23:13:51;281.07;;;228.07;;
9900;SDS011;4989;48.772;9.154;2023-05-09T23:18:54;279.47;;;220.67;;
9900;SDS011;4989;48.772;9.154;2023-05-09T23:23:56;293.67;;;251.10;;
9900;SDS011;4989;48.772;9.154;2023-05-09T23:28:58;318.20;;;284.03;;
9900;SDS011;4989;48.772;9.154;2023-05-09T23:34:01;317.37;;;283.30;;
9900;SDS011;4989;48.772;9.154;2023-05-09T23:39:03;324.30;;;290.00;;
9900;SDS011;4989;48.772;9.154;2023-05-09T23:44:06;381.23;;;345.13;;
9900;SDS011;4989;48.772;9.154;2023-05-09T23:49:08;501.60;;;461.10;;
9900;SDS011;4989;48.772;9.154;2023-05-09T23:54:10;423.10;;;385.63;;
9900;SDS011;4989;48.772;9.154;2023-05-09T23:59:12;370.73;;;335.17;;
